sensor_id;sensor_type;location;lat;lon;timestamp;P1;durP1;ratioP1;P2;durP2;ratioP2
64550;SDS011;50945;44.472;-123.352;2023-03-04T00:02:27;1.58;;;0.98;;
64550;SDS011;50945;44.472;-123.352;2023-03-04T00:04:54;2.17;;;1.00;;
64550;SDS011;50945;44.472;-123.352;2023-03-04T00:07:20;1.55;;;0.95;;
64550;SDS011;50945;44.472;-123.352;2023-03-04T00:09:46;1.45;;;1.10;;
64550;SDS011;50945;44.472;-123.352;2023-03-04T00:12:13;0.88;;;0.75;;
64550;SDS011;50945;44.472;-123.352;2023-03-04T00:14:39;2.25;;;1.33;;
64550;SDS011;50945;44.472;-123.352;2023-03-04T00:17:06;3.42;;;1.05;;
64550;SDS011;50945;44.472;-123.352;2023-03-04T00:24:25;7.20;;;1.40;;
64550;SDS011;50945;44.472;-123.352;2023-03-04T00:26:52;0.65;;;0.63;;
64550;SDS011;50945;44.472;-123.352;2023-03-04T00:29:18;2.58;;;1.20;;
64550;SDS011;50945;44.472;-123.352;2023-03-04T00:31:46;1.27;;;0.95;;
64550;SDS011;50945;44.472;-123.352;2023-03-04T00:34:12;1.67;;;1.23;;
64550;SDS011;50945;44.472;-123.352;2023-03-04T00:36:39;1.17;;;0.90;;
64550;SDS011;50945;44.472;-123.352;2023-03-04T00:39:05;4.47;;;1.45;;
64550;SDS011;50945;44.472;-123.352;2023-03-04T00:41:31;3.17;;;1.52;;
64550;SDS011;50945;44.472;-123.352;2023-03-04T00:43:58;3.15;;;1.00;;
64550;SDS011;50945;44.472;-123.352;2023-03-04T00:46:24;4.75;;;1.35;;
64550;SDS011;50945;44.472;-123.352;2023-03-04T00:48:50;2.80;;;1.20;;
64550;SDS011;50945;44.472;-123.352;2023-03-04T00:51:17;3.88;;;1.38;;
64550;SDS011;50945;44.472;-123.352;2023-03-04T00:53:46;3.65;;;1.63;;
64550;SDS011;50945;44.472;-123.352;2023-03-04T00:56:16;3.47;;;1.73;;
64550;SDS011;50945;44.472;-123.352;2023-03-04T00:58:43;2.85;;;1.27;;
64550;SDS011;50945;44.472;-123.352;2023-03-04T01:01:11;4.25;;;1.50;;
64550;SDS011;50945;44.472;-123.352;2023-03-04T01:03:38;3.60;;;1.23;;
64550;SDS011;50945;44.472;-123.352;2023-03-04T01:06:06;2.92;;;1.25;;
64550;SDS011;50945;44.472;-123.352;2023-03-04T01:08:33;3.83;;;1.77;;
64550;SDS011;50945;44.472;-123.352;2023-03-04T01:10:59;3.65;;;1.30;;
64550;SDS011;50945;44.472;-123.352;2023-03-04T01:13:25;2.50;;;1.67;;
64550;SDS011;50945;44.472;-123.352;2023-03-04T01:15:52;4.88;;;1.77;;
64550;SDS011;50945;44.472;-123.352;2023-03-04T01:18:18;2.67;;;1.40;;
64550;SDS011;50945;44.472;-123.352;2023-03-04T01:20:44;2.72;;;1.25;;
64550;SDS011;50945;44.472;-123.352;2023-03-04T01:23:11;7.47;;;2.08;;
64550;SDS011;50945;44.472;-123.352;2023-03-04T01:25:37;1.42;;;0.98;;
64550;SDS011;50945;44.472;-123.352;2023-03-04T01:28:03;3.55;;;1.65;;
64550;SDS011;50945;44.472;-123.352;2023-03-04T01:30:30;4.65;;;1.80;;
64550;SDS011;50945;44.472;-123.352;2023-03-04T01:32:56;2.95;;;0.95;;
64550;SDS011;50945;44.472;-123.352;2023-03-04T01:35:23;1.67;;;0.98;;
64550;SDS011;50945;44.472;-123.352;2023-03-04T01:37:49;1.50;;;1.00;;
64550;SDS011;50945;44.472;-123.352;2023-03-04T01:40:15;2.95;;;1.00;;
64550;SDS011;50945;44.472;-123.352;2023-03-04T01:42:42;1.95;;;1.15;;
64550;SDS011;50945;44.472;-123.352;2023-03-04T01:45:11;2.63;;;0.75;;
64550;SDS011;50945;44.472;-123.352;2023-03-04T01:47:43;1.92;;;1.20;;
64550;SDS011;50945;44.472;-123.352;2023-03-04T01:50:18;2.17;;;1.00;;
64550;SDS011;50945;44.472;-123.352;2023-03-04T01:52:47;1.52;;;0.85;;
64550;SDS011;50945;44.472;-123.352;2023-03-04T01:55:16;3.40;;;0.88;;
64550;SDS011;50945;44.472;-123.352;2023-03-04T01:57:45;2.10;;;0.90;;
64550;SDS011;50945;44.472;-123.352;2023-03-04T02:00:21;1.63;;;0.77;;
64550;SDS011;50945;44.472;-123.352;2023-03-04T02:02:57;2.67;;;0.90;;
64550;SDS011;50945;44.472;-123.352;2023-03-04T02:05:25;4.15;;;1.08;;
64550;SDS011;50945;44.472;-123.352;2023-03-04T02:07:52;4.85;;;1.80;;
64550;SDS011;50945;44.472;-123.352;2023-03-04T02:10:20;2.63;;;1.10;;
64550;SDS011;50945;44.472;-123.352;2023-03-04T02:12:47;2.20;;;0.98;;
64550;SDS011;50945;44.472;-123.352;2023-03-04T02:15:15;1.40;;;1.20;;
64550;SDS011;50945;44.472;-123.352;2023-03-04T02:17:41;2.80;;;1.27;;
64550;SDS011;50945;44.472;-123.352;2023-03-04T02:20:12;4.60;;;1.40;;
64550;SDS011;50945;44.472;-123.352;2023-03-04T02:25:32;4.22;;;1.73;;
64550;SDS011;50945;44.472;-123.352;2023-03-04T02:28:04;1.50;;;0.98;;
64550;SDS011;50945;44.472;-123.352;2023-03-04T02:30:30;2.95;;;1.33;;
64550;SDS011;50945;44.472;-123.352;2023-03-04T02:32:57;1.50;;;1.40;;
64550;SDS011;50945;44.472;-123.352;2023-03-04T02:35:23;2.33;;;1.50;;
64550;SDS011;50945;44.472;-123.352;2023-03-04T02:37:50;4.45;;;1.55;;
64550;SDS011;50945;44.472;-123.352;2023-03-04T02:40:21;4.40;;;1.30;;
64550;SDS011;50945;44.472;-123.352;2023-03-04T02:42:54;2.05;;;1.27;;
64550;SDS011;50945;44.472;-123.352;2023-03-04T02:48:04;3.40;;;0.80;;
64550;SDS011;50945;44.472;-123.352;2023-03-04T02:50:37;1.98;;;0.73;;
64550;SDS011;50945;44.472;-123.352;2023-03-04T02:53:14;1.88;;;1.23;;
64550;SDS011;50945;44.472;-123.352;2023-03-04T02:58:08;1.65;;;0.88;;
64550;SDS011;50945;44.472;-123.352;2023-03-04T03:00:35;1.10;;;0.90;;
64550;SDS011;50945;44.472;-123.352;2023-03-04T03:03:02;2.13;;;0.77;;
64550;SDS011;50945;44.472;-123.352;2023-03-04T03:05:29;3.38;;;1.00;;
64550;SDS011;50945;44.472;-123.352;2023-03-04T03:07:57;2.58;;;0.80;;
64550;SDS011;50945;44.472;-123.352;2023-03-04T03:10:23;1.88;;;1.08;;
64550;SDS011;50945;44.472;-123.352;2023-03-04T03:12:51;2.05;;;1.00;;
64550;SDS011;50945;44.472;-123.352;2023-03-04T03:15:20;5.63;;;1.15;;
64550;SDS011;50945;44.472;-123.352;2023-03-04T03:17:47;1.52;;;1.20;;
64550;SDS011;50945;44.472;-123.352;2023-03-04T03:20:14;3.47;;;1.27;;
64550;SDS011;50945;44.472;-123.352;2023-03-04T03:22:41;1.30;;;1.20;;
64550;SDS011;50945;44.472;-123.352;2023-03-04T03:25:07;2.45;;;1.30;;
64550;SDS011;50945;44.472;-123.352;2023-03-04T03:27:35;5.55;;;1.52;;
64550;SDS011;50945;44.472;-123.352;2023-03-04T03:30:05;2.08;;;1.10;;
64550;SDS011;50945;44.472;-123.352;2023-03-04T03:32:34;2.30;;;1.08;;
64550;SDS011;50945;44.472;-123.352;2023-03-04T03:35:00;2.60;;;0.90;;
64550;SDS011;50945;44.472;-123.352;2023-03-04T03:37:27;1.67;;;1.00;;
64550;SDS011;50945;44.472;-123.352;2023-03-04T03:39:53;2.00;;;1.00;;
64550;SDS011;50945;44.472;-123.352;2023-03-04T03:42:19;2.05;;;0.93;;
64550;SDS011;50945;44.472;-123.352;2023-03-04T03:44:46;0.65;;;0.60;;
64550;SDS011;50945;44.472;-123.352;2023-03-04T03:47:12;3.65;;;1.40;;
64550;SDS011;50945;44.472;-123.352;2023-03-04T03:49:43;1.65;;;0.90;;
64550;SDS011;50945;44.472;-123.352;2023-03-04T03:52:09;1.17;;;0.70;;
64550;SDS011;50945;44.472;-123.352;2023-03-04T03:54:36;3.20;;;0.85;;
64550;SDS011;50945;44.472;-123.352;2023-03-04T03:57:02;1.27;;;0.90;;
64550;SDS011;50945;44.472;-123.352;2023-03-04T03:59:31;1.38;;;0.82;;
64550;SDS011;50945;44.472;-123.352;2023-03-04T04:01:58;0.85;;;0.63;;
64550;SDS011;50945;44.472;-123.352;2023-03-04T04:04:24;3.30;;;1.13;;
64550;SDS011;50945;44.472;-123.352;2023-03-04T04:06:51;2.38;;;1.23;;
64550;SDS011;50945;44.472;-123.352;2023-03-04T04:09:17;2.85;;;1.00;;
64550;SDS011;50945;44.472;-123.352;2023-03-04T04:11:43;1.73;;;1.50;;
64550;SDS011;50945;44.472;-123.352;2023-03-04T04:14:11;4.43;;;1.48;;
64550;SDS011;50945;44.472;-123.352;2023-03-04T04:16:38;2.85;;;1.30;;
64550;SDS011;50945;44.472;-123.352;2023-03-04T04:19:12;2.03;;;1.10;;
64550;SDS011;50945;44.472;-123.352;2023-03-04T04:21:45;2.50;;;0.90;;
64550;SDS011;50945;44.472;-123.352;2023-03-04T04:24:11;4.45;;;2.03;;
64550;SDS011;50945;44.472;-123.352;2023-03-04T04:26:41;2.45;;;1.40;;
64550;SDS011;50945;44.472;-123.352;2023-03-04T04:29:08;9.48;;;2.05;;
64550;SDS011;50945;44.472;-123.352;2023-03-04T04:31:37;2.80;;;1.48;;
64550;SDS011;50945;44.472;-123.352;2023-03-04T04:34:04;1.52;;;1.30;;
64550;SDS011;50945;44.472;-123.352;2023-03-04T04:36:30;2.75;;;1.38;;
64550;SDS011;50945;44.472;-123.352;2023-03-04T04:38:56;3.22;;;1.52;;
64550;SDS011;50945;44.472;-123.352;2023-03-04T04:41:24;5.95;;;1.60;;
64550;SDS011;50945;44.472;-123.352;2023-03-04T04:43:53;2.92;;;1.52;;
64550;SDS011;50945;44.472;-123.352;2023-03-04T04:46:20;1.55;;;1.42;;
64550;SDS011;50945;44.472;-123.352;2023-03-04T04:48:46;3.72;;;1.65;;
64550;SDS011;50945;44.472;-123.352;2023-03-04T04:51:13;6.20;;;1.85;;
64550;SDS011;50945;44.472;-123.352;2023-03-04T04:53:39;4.70;;;1.48;;
64550;SDS011;50945;44.472;-123.352;2023-03-04T04:56:12;5.13;;;2.05;;
64550;SDS011;50945;44.472;-123.352;2023-03-04T04:58:41;4.55;;;1.52;;
64550;SDS011;50945;44.472;-123.352;2023-03-04T05:01:08;6.68;;;1.90;;
64550;SDS011;50945;44.472;-123.352;2023-03-04T05:03:36;3.85;;;1.80;;
64550;SDS011;50945;44.472;-123.352;2023-03-04T05:08:31;4.40;;;1.98;;
64550;SDS011;50945;44.472;-123.352;2023-03-04T05:10:58;3.60;;;1.50;;
64550;SDS011;50945;44.472;-123.352;2023-03-04T05:13:25;5.38;;;1.65;;
64550;SDS011;50945;44.472;-123.352;2023-03-04T05:15:52;4.90;;;2.03;;
64550;SDS011;50945;44.472;-123.352;2023-03-04T05:18:20;3.90;;;1.90;;
64550;SDS011;50945;44.472;-123.352;2023-03-04T05:20:51;3.95;;;1.60;;
64550;SDS011;50945;44.472;-123.352;2023-03-04T05:23:18;3.38;;;1.50;;
64550;SDS011;50945;44.472;-123.352;2023-03-04T05:25:45;5.13;;;1.95;;
64550;SDS011;50945;44.472;-123.352;2023-03-04T05:28:12;3.08;;;1.50;;
64550;SDS011;50945;44.472;-123.352;2023-03-04T05:30:39;4.63;;;2.10;;
64550;SDS011;50945;44.472;-123.352;2023-03-04T05:33:07;3.25;;;1.80;;
64550;SDS011;50945;44.472;-123.352;2023-03-04T05:35:35;3.30;;;1.50;;
64550;SDS011;50945;44.472;-123.352;2023-03-04T05:38:03;6.00;;;2.10;;
64550;SDS011;50945;44.472;-123.352;2023-03-04T05:40:31;5.05;;;1.88;;
64550;SDS011;50945;44.472;-123.352;2023-03-04T05:42:57;5.38;;;2.20;;
64550;SDS011;50945;44.472;-123.352;2023-03-04T05:45:24;7.00;;;2.13;;
64550;SDS011;50945;44.472;-123.352;2023-03-04T05:50:18;4.50;;;1.77;;
64550;SDS011;50945;44.472;-123.352;2023-03-04T05:52:48;5.78;;;2.00;;
64550;SDS011;50945;44.472;-123.352;2023-03-04T05:55:15;4.13;;;1.85;;
64550;SDS011;50945;44.472;-123.352;2023-03-04T05:57:42;4.68;;;1.83;;
64550;SDS011;50945;44.472;-123.352;2023-03-04T06:00:09;4.47;;;1.50;;
64550;SDS011;50945;44.472;-123.352;2023-03-04T06:02:37;6.53;;;2.17;;
64550;SDS011;50945;44.472;-123.352;2023-03-04T06:05:04;2.35;;;1.60;;
64550;SDS011;50945;44.472;-123.352;2023-03-04T06:07:32;4.03;;;2.05;;
64550;SDS011;50945;44.472;-123.352;2023-03-04T06:09:59;2.22;;;1.50;;
64550;SDS011;50945;44.472;-123.352;2023-03-04T06:12:25;5.70;;;2.20;;
64550;SDS011;50945;44.472;-123.352;2023-03-04T06:14:53;4.72;;;1.58;;
64550;SDS011;50945;44.472;-123.352;2023-03-04T06:17:20;6.13;;;1.80;;
64550;SDS011;50945;44.472;-123.352;2023-03-04T06:19:46;3.75;;;1.48;;
64550;SDS011;50945;44.472;-123.352;2023-03-04T06:22:12;2.45;;;1.45;;
64550;SDS011;50945;44.472;-123.352;2023-03-04T06:24:39;4.72;;;1.80;;
64550;SDS011;50945;44.472;-123.352;2023-03-04T06:27:05;4.82;;;2.05;;
64550;SDS011;50945;44.472;-123.352;2023-03-04T06:29:32;4.95;;;2.45;;
64550;SDS011;50945;44.472;-123.352;2023-03-04T06:31:58;2.00;;;1.65;;
64550;SDS011;50945;44.472;-123.352;2023-03-04T06:34:25;2.47;;;1.38;;
64550;SDS011;50945;44.472;-123.352;2023-03-04T06:36:55;3.53;;;1.77;;
64550;SDS011;50945;44.472;-123.352;2023-03-04T06:39:21;2.90;;;2.15;;
64550;SDS011;50945;44.472;-123.352;2023-03-04T06:41:48;5.10;;;2.05;;
64550;SDS011;50945;44.472;-123.352;2023-03-04T06:44:14;4.88;;;1.77;;
64550;SDS011;50945;44.472;-123.352;2023-03-04T06:46:40;4.72;;;1.73;;
64550;SDS011;50945;44.472;-123.352;2023-03-04T06:49:07;2.92;;;1.80;;
64550;SDS011;50945;44.472;-123.352;2023-03-04T06:51:33;3.10;;;1.55;;
64550;SDS011;50945;44.472;-123.352;2023-03-04T06:53:59;5.43;;;1.90;;
64550;SDS011;50945;44.472;-123.352;2023-03-04T06:56:26;4.30;;;1.83;;
64550;SDS011;50945;44.472;-123.352;2023-03-04T06:58:52;3.05;;;1.88;;
64550;SDS011;50945;44.472;-123.352;2023-03-04T07:01:22;3.95;;;1.40;;
64550;SDS011;50945;44.472;-123.352;2023-03-04T07:03:51;4.25;;;1.70;;
64550;SDS011;50945;44.472;-123.352;2023-03-04T07:06:19;5.80;;;1.70;;
64550;SDS011;50945;44.472;-123.352;2023-03-04T07:08:48;4.03;;;1.63;;
64550;SDS011;50945;44.472;-123.352;2023-03-04T07:11:15;2.53;;;1.50;;
64550;SDS011;50945;44.472;-123.352;2023-03-04T07:13:42;2.60;;;1.48;;
64550;SDS011;50945;44.472;-123.352;2023-03-04T07:16:11;2.05;;;1.08;;
64550;SDS011;50945;44.472;-123.352;2023-03-04T07:18:39;4.00;;;1.40;;
64550;SDS011;50945;44.472;-123.352;2023-03-04T07:21:06;2.92;;;1.38;;
64550;SDS011;50945;44.472;-123.352;2023-03-04T07:23:33;1.90;;;1.00;;
64550;SDS011;50945;44.472;-123.352;2023-03-04T07:26:00;5.22;;;1.92;;
64550;SDS011;50945;44.472;-123.352;2023-03-04T07:28:27;3.92;;;1.48;;
64550;SDS011;50945;44.472;-123.352;2023-03-04T07:30:53;6.70;;;2.05;;
64550;SDS011;50945;44.472;-123.352;2023-03-04T07:33:22;3.90;;;1.42;;
64550;SDS011;50945;44.472;-123.352;2023-03-04T07:35:48;5.28;;;1.90;;
64550;SDS011;50945;44.472;-123.352;2023-03-04T07:38:24;4.80;;;1.75;;
64550;SDS011;50945;44.472;-123.352;2023-03-04T07:40:56;2.75;;;1.42;;
64550;SDS011;50945;44.472;-123.352;2023-03-04T07:43:23;6.72;;;1.92;;
64550;SDS011;50945;44.472;-123.352;2023-03-04T07:45:50;3.72;;;1.10;;
64550;SDS011;50945;44.472;-123.352;2023-03-04T07:48:16;4.57;;;1.83;;
64550;SDS011;50945;44.472;-123.352;2023-03-04T07:50:42;5.05;;;1.60;;
64550;SDS011;50945;44.472;-123.352;2023-03-04T07:53:09;3.80;;;1.67;;
64550;SDS011;50945;44.472;-123.352;2023-03-04T07:55:35;5.68;;;1.73;;
64550;SDS011;50945;44.472;-123.352;2023-03-04T07:58:01;3.22;;;1.13;;
64550;SDS011;50945;44.472;-123.352;2023-03-04T08:00:27;6.68;;;1.67;;
64550;SDS011;50945;44.472;-123.352;2023-03-04T08:02:54;3.85;;;2.00;;
64550;SDS011;50945;44.472;-123.352;2023-03-04T08:05:20;4.00;;;1.50;;
64550;SDS011;50945;44.472;-123.352;2023-03-04T08:07:46;5.65;;;1.98;;
64550;SDS011;50945;44.472;-123.352;2023-03-04T08:10:13;4.63;;;1.75;;
64550;SDS011;50945;44.472;-123.352;2023-03-04T08:12:39;5.82;;;1.70;;
64550;SDS011;50945;44.472;-123.352;2023-03-04T08:15:05;3.30;;;1.80;;
64550;SDS011;50945;44.472;-123.352;2023-03-04T08:17:32;5.47;;;1.55;;
64550;SDS011;50945;44.472;-123.352;2023-03-04T08:19:59;3.45;;;1.42;;
64550;SDS011;50945;44.472;-123.352;2023-03-04T08:22:25;2.83;;;1.90;;
64550;SDS011;50945;44.472;-123.352;2023-03-04T08:24:51;8.05;;;1.95;;
64550;SDS011;50945;44.472;-123.352;2023-03-04T08:27:17;5.22;;;1.88;;
64550;SDS011;50945;44.472;-123.352;2023-03-04T08:29:43;3.63;;;1.83;;
64550;SDS011;50945;44.472;-123.352;2023-03-04T08:32:09;3.28;;;1.95;;
64550;SDS011;50945;44.472;-123.352;2023-03-04T08:34:37;3.60;;;1.80;;
64550;SDS011;50945;44.472;-123.352;2023-03-04T08:37:05;7.45;;;1.73;;
64550;SDS011;50945;44.472;-123.352;2023-03-04T08:39:31;2.25;;;1.88;;
64550;SDS011;50945;44.472;-123.352;2023-03-04T08:41:59;3.92;;;1.88;;
64550;SDS011;50945;44.472;-123.352;2023-03-04T08:44:26;7.22;;;2.13;;
64550;SDS011;50945;44.472;-123.352;2023-03-04T08:46:52;6.90;;;2.30;;
64550;SDS011;50945;44.472;-123.352;2023-03-04T08:49:18;3.50;;;1.77;;
64550;SDS011;50945;44.472;-123.352;2023-03-04T08:51:45;2.95;;;1.52;;
64550;SDS011;50945;44.472;-123.352;2023-03-04T08:54:11;6.45;;;2.00;;
64550;SDS011;50945;44.472;-123.352;2023-03-04T08:56:37;4.25;;;1.90;;
64550;SDS011;50945;44.472;-123.352;2023-03-04T08:59:05;6.32;;;2.33;;
64550;SDS011;50945;44.472;-123.352;2023-03-04T09:01:31;2.90;;;1.98;;
64550;SDS011;50945;44.472;-123.352;2023-03-04T09:03:58;3.97;;;2.25;;
64550;SDS011;50945;44.472;-123.352;2023-03-04T09:06:24;8.70;;;2.20;;
64550;SDS011;50945;44.472;-123.352;2023-03-04T09:08:50;3.90;;;2.08;;
64550;SDS011;50945;44.472;-123.352;2023-03-04T09:11:17;10.20;;;2.30;;
64550;SDS011;50945;44.472;-123.352;2023-03-04T09:13:43;4.35;;;2.05;;
64550;SDS011;50945;44.472;-123.352;2023-03-04T09:16:10;5.93;;;2.15;;
64550;SDS011;50945;44.472;-123.352;2023-03-04T09:18:39;5.93;;;2.22;;
64550;SDS011;50945;44.472;-123.352;2023-03-04T09:21:06;9.52;;;2.45;;
64550;SDS011;50945;44.472;-123.352;2023-03-04T09:23:35;4.75;;;2.10;;
64550;SDS011;50945;44.472;-123.352;2023-03-04T09:26:11;4.43;;;2.58;;
64550;SDS011;50945;44.472;-123.352;2023-03-04T09:28:43;4.28;;;1.98;;
64550;SDS011;50945;44.472;-123.352;2023-03-04T09:31:13;3.08;;;2.10;;
64550;SDS011;50945;44.472;-123.352;2023-03-04T09:33:40;4.45;;;1.98;;
64550;SDS011;50945;44.472;-123.352;2023-03-04T09:36:08;2.92;;;1.95;;
64550;SDS011;50945;44.472;-123.352;2023-03-04T09:38:35;5.05;;;2.17;;
64550;SDS011;50945;44.472;-123.352;2023-03-04T09:41:03;5.47;;;1.73;;
64550;SDS011;50945;44.472;-123.352;2023-03-04T09:43:33;3.55;;;2.33;;
64550;SDS011;50945;44.472;-123.352;2023-03-04T09:46:03;3.03;;;1.75;;
64550;SDS011;50945;44.472;-123.352;2023-03-04T09:48:38;2.65;;;1.63;;
64550;SDS011;50945;44.472;-123.352;2023-03-04T09:57:09;4.25;;;2.05;;
64550;SDS011;50945;44.472;-123.352;2023-03-04T09:59:40;3.38;;;1.95;;
64550;SDS011;50945;44.472;-123.352;2023-03-04T10:02:19;3.63;;;1.83;;
64550;SDS011;50945;44.472;-123.352;2023-03-04T10:05:09;2.70;;;2.03;;
64550;SDS011;50945;44.472;-123.352;2023-03-04T10:07:42;3.78;;;2.22;;
64550;SDS011;50945;44.472;-123.352;2023-03-04T10:10:21;5.88;;;1.40;;
64550;SDS011;50945;44.472;-123.352;2023-03-04T10:12:57;5.00;;;1.80;;
64550;SDS011;50945;44.472;-123.352;2023-03-04T10:18:13;4.35;;;2.10;;
64550;SDS011;50945;44.472;-123.352;2023-03-04T10:20:53;2.80;;;1.70;;
64550;SDS011;50945;44.472;-123.352;2023-03-04T10:23:25;4.20;;;2.13;;
64550;SDS011;50945;44.472;-123.352;2023-03-04T10:25:53;2.00;;;1.75;;
64550;SDS011;50945;44.472;-123.352;2023-03-04T10:33:36;4.03;;;2.25;;
64550;SDS011;50945;44.472;-123.352;2023-03-04T10:38:51;3.30;;;1.70;;
64550;SDS011;50945;44.472;-123.352;2023-03-04T10:41:20;5.38;;;2.47;;
64550;SDS011;50945;44.472;-123.352;2023-03-04T10:43:50;4.28;;;2.55;;
64550;SDS011;50945;44.472;-123.352;2023-03-04T10:46:30;8.70;;;2.15;;
64550;SDS011;50945;44.472;-123.352;2023-03-04T10:51:27;3.95;;;2.13;;
64550;SDS011;50945;44.472;-123.352;2023-03-04T10:53:56;4.35;;;2.00;;
64550;SDS011;50945;44.472;-123.352;2023-03-04T10:56:38;5.85;;;2.20;;
64550;SDS011;50945;44.472;-123.352;2023-03-04T11:04:52;2.30;;;1.60;;
64550;SDS011;50945;44.472;-123.352;2023-03-04T11:07:21;3.90;;;2.05;;
64550;SDS011;50945;44.472;-123.352;2023-03-04T11:09:49;5.72;;;2.35;;
64550;SDS011;50945;44.472;-123.352;2023-03-04T11:12:16;2.72;;;2.05;;
64550;SDS011;50945;44.472;-123.352;2023-03-04T11:14:48;3.65;;;2.30;;
64550;SDS011;50945;44.472;-123.352;2023-03-04T11:17:23;4.68;;;1.92;;
64550;SDS011;50945;44.472;-123.352;2023-03-04T11:20:04;4.82;;;2.78;;
64550;SDS011;50945;44.472;-123.352;2023-03-04T11:22:43;5.25;;;1.73;;
64550;SDS011;50945;44.472;-123.352;2023-03-04T11:25:20;2.60;;;1.75;;
64550;SDS011;50945;44.472;-123.352;2023-03-04T11:27:58;5.38;;;2.92;;
64550;SDS011;50945;44.472;-123.352;2023-03-04T11:30:53;6.30;;;2.03;;
64550;SDS011;50945;44.472;-123.352;2023-03-04T11:33:25;4.78;;;1.92;;
64550;SDS011;50945;44.472;-123.352;2023-03-04T11:44:56;4.68;;;2.10;;
64550;SDS011;50945;44.472;-123.352;2023-03-04T11:53:39;5.50;;;1.83;;
64550;SDS011;50945;44.472;-123.352;2023-03-04T12:13:06;7.05;;;2.45;;
64550;SDS011;50945;44.472;-123.352;2023-03-04T12:21:16;6.88;;;2.22;;
64550;SDS011;50945;44.472;-123.352;2023-03-04T12:29:32;4.45;;;2.22;;
64550;SDS011;50945;44.472;-123.352;2023-03-04T12:32:17;4.90;;;2.30;;
64550;SDS011;50945;44.472;-123.352;2023-03-04T12:37:50;4.20;;;2.35;;
64550;SDS011;50945;44.472;-123.352;2023-03-04T12:48:54;8.25;;;2.40;;
64550;SDS011;50945;44.472;-123.352;2023-03-04T12:51:44;4.18;;;2.13;;
64550;SDS011;50945;44.472;-123.352;2023-03-04T12:59:33;4.53;;;2.42;;
64550;SDS011;50945;44.472;-123.352;2023-03-04T13:07:20;3.88;;;2.00;;
64550;SDS011;50945;44.472;-123.352;2023-03-04T13:10:06;3.97;;;2.20;;
64550;SDS011;50945;44.472;-123.352;2023-03-04T13:12:54;2.58;;;1.77;;
64550;SDS011;50945;44.472;-123.352;2023-03-04T13:15:30;5.35;;;2.65;;
64550;SDS011;50945;44.472;-123.352;2023-03-04T13:18:01;4.00;;;2.70;;
64550;SDS011;50945;44.472;-123.352;2023-03-04T13:20:40;3.65;;;1.90;;
64550;SDS011;50945;44.472;-123.352;2023-03-04T13:28:32;4.88;;;1.70;;
64550;SDS011;50945;44.472;-123.352;2023-03-04T13:39:21;5.18;;;1.77;;
64550;SDS011;50945;44.472;-123.352;2023-03-04T13:41:50;4.60;;;1.83;;
64550;SDS011;50945;44.472;-123.352;2023-03-04T13:47:17;2.60;;;1.67;;
64550;SDS011;50945;44.472;-123.352;2023-03-04T13:49:47;4.55;;;1.77;;
64550;SDS011;50945;44.472;-123.352;2023-03-04T13:52:34;3.58;;;1.65;;
64550;SDS011;50945;44.472;-123.352;2023-03-04T13:58:01;3.38;;;1.85;;
64550;SDS011;50945;44.472;-123.352;2023-03-04T14:00:51;3.35;;;1.65;;
64550;SDS011;50945;44.472;-123.352;2023-03-04T14:03:21;6.25;;;1.35;;
64550;SDS011;50945;44.472;-123.352;2023-03-04T14:08:43;2.35;;;1.45;;
64550;SDS011;50945;44.472;-123.352;2023-03-04T14:11:33;3.05;;;1.60;;
64550;SDS011;50945;44.472;-123.352;2023-03-04T14:14:07;2.88;;;1.92;;
64550;SDS011;50945;44.472;-123.352;2023-03-04T14:19:52;4.20;;;1.75;;
64550;SDS011;50945;44.472;-123.352;2023-03-04T14:22:26;3.28;;;1.63;;
64550;SDS011;50945;44.472;-123.352;2023-03-04T14:27:32;5.10;;;2.33;;
64550;SDS011;50945;44.472;-123.352;2023-03-04T14:30:01;5.68;;;2.15;;
64550;SDS011;50945;44.472;-123.352;2023-03-04T14:32:30;4.85;;;2.05;;
64550;SDS011;50945;44.472;-123.352;2023-03-04T14:34:57;3.13;;;1.75;;
64550;SDS011;50945;44.472;-123.352;2023-03-04T14:40:28;3.50;;;1.77;;
64550;SDS011;50945;44.472;-123.352;2023-03-04T14:43:16;3.83;;;1.65;;
64550;SDS011;50945;44.472;-123.352;2023-03-04T14:45:46;2.50;;;1.80;;
64550;SDS011;50945;44.472;-123.352;2023-03-04T14:48:24;2.50;;;1.90;;
64550;SDS011;50945;44.472;-123.352;2023-03-04T14:50:56;4.70;;;1.88;;
64550;SDS011;50945;44.472;-123.352;2023-03-04T14:53:27;4.47;;;1.95;;
64550;SDS011;50945;44.472;-123.352;2023-03-04T14:56:04;6.53;;;2.13;;
64550;SDS011;50945;44.472;-123.352;2023-03-04T14:58:36;2.22;;;1.50;;
64550;SDS011;50945;44.472;-123.352;2023-03-04T15:03:41;4.35;;;1.85;;
64550;SDS011;50945;44.472;-123.352;2023-03-04T15:06:17;2.17;;;1.60;;
64550;SDS011;50945;44.472;-123.352;2023-03-04T15:08:53;2.53;;;1.77;;
64550;SDS011;50945;44.472;-123.352;2023-03-04T15:11:58;3.42;;;1.60;;
64550;SDS011;50945;44.472;-123.352;2023-03-04T15:25:17;4.45;;;1.73;;
64550;SDS011;50945;44.472;-123.352;2023-03-04T15:27:44;3.13;;;1.73;;
64550;SDS011;50945;44.472;-123.352;2023-03-04T15:30:23;2.72;;;1.77;;
64550;SDS011;50945;44.472;-123.352;2023-03-04T15:32:53;3.47;;;1.65;;
64550;SDS011;50945;44.472;-123.352;2023-03-04T15:35:20;5.18;;;1.98;;
64550;SDS011;50945;44.472;-123.352;2023-03-04T15:37:49;2.17;;;1.80;;
64550;SDS011;50945;44.472;-123.352;2023-03-04T15:42:51;2.50;;;1.45;;
64550;SDS011;50945;44.472;-123.352;2023-03-04T15:45:22;1.90;;;1.70;;
64550;SDS011;50945;44.472;-123.352;2023-03-04T15:47:54;2.53;;;1.90;;
64550;SDS011;50945;44.472;-123.352;2023-03-04T15:50:21;2.03;;;1.63;;
64550;SDS011;50945;44.472;-123.352;2023-03-04T15:52:51;3.47;;;1.83;;
64550;SDS011;50945;44.472;-123.352;2023-03-04T15:55:23;3.40;;;1.42;;
64550;SDS011;50945;44.472;-123.352;2023-03-04T15:57:51;4.07;;;1.90;;
64550;SDS011;50945;44.472;-123.352;2023-03-04T16:00:20;3.13;;;1.90;;
64550;SDS011;50945;44.472;-123.352;2023-03-04T16:02:46;3.83;;;2.05;;
64550;SDS011;50945;44.472;-123.352;2023-03-04T16:05:13;2.20;;;1.27;;
64550;SDS011;50945;44.472;-123.352;2023-03-04T16:07:41;5.35;;;2.03;;
64550;SDS011;50945;44.472;-123.352;2023-03-04T16:12:52;3.17;;;1.42;;
64550;SDS011;50945;44.472;-123.352;2023-03-04T16:15:22;1.77;;;1.13;;
64550;SDS011;50945;44.472;-123.352;2023-03-04T16:17:53;1.67;;;1.23;;
64550;SDS011;50945;44.472;-123.352;2023-03-04T16:20:21;3.65;;;1.75;;
64550;SDS011;50945;44.472;-123.352;2023-03-04T16:22:53;3.35;;;1.70;;
64550;SDS011;50945;44.472;-123.352;2023-03-04T16:25:25;2.03;;;1.52;;
64550;SDS011;50945;44.472;-123.352;2023-03-04T16:27:53;3.70;;;1.40;;
64550;SDS011;50945;44.472;-123.352;2023-03-04T16:30:28;2.97;;;1.55;;
64550;SDS011;50945;44.472;-123.352;2023-03-04T16:32:58;2.42;;;1.58;;
64550;SDS011;50945;44.472;-123.352;2023-03-04T16:35:25;1.40;;;1.33;;
64550;SDS011;50945;44.472;-123.352;2023-03-04T16:38:24;2.78;;;1.30;;
64550;SDS011;50945;44.472;-123.352;2023-03-04T16:40:54;3.20;;;1.92;;
64550;SDS011;50945;44.472;-123.352;2023-03-04T16:43:21;1.67;;;1.17;;
64550;SDS011;50945;44.472;-123.352;2023-03-04T16:45:48;1.80;;;1.25;;
64550;SDS011;50945;44.472;-123.352;2023-03-04T16:48:15;1.52;;;1.42;;
64550;SDS011;50945;44.472;-123.352;2023-03-04T16:50:42;1.35;;;1.25;;
64550;SDS011;50945;44.472;-123.352;2023-03-04T16:53:42;2.20;;;1.60;;
64550;SDS011;50945;44.472;-123.352;2023-03-04T16:56:04;2.72;;;1.65;;
64550;SDS011;50945;44.472;-123.352;2023-03-04T16:58:35;1.48;;;1.00;;
64550;SDS011;50945;44.472;-123.352;2023-03-04T17:01:02;0.63;;;0.60;;